Terminal Aerodrome Forecast
Issued by NWS Wilmington, NC

Home | Current Version | Previous Version | Text Only | Print | Product List | Glossary On
Versions: 1 2 3 4 5 6 7 8 9 10 11 12 13 14
000
FTUS42 KILM 011739
TAFMYR
TAF
KMYR 011739Z 0118/0218 24007KT P6SM VCSH SCT025 SCT080
     FM012000 20009KT P6SM SCT040 SCT120
     FM020400 22006KT P6SM VCSH BKN070
     FM021200 27008KT P6SM FEW050 BKN120=

USA.gov is the U.S. government's official web portal to all federal, state and local government web resources and services.